La Selva Beach, California
Current Conditions -  °F | °C
As of 9:53 PM on Thursday 18 Dec 2014 (Local Time) from KWVI Reporting Station
Broken Clouds Broken Clouds  
Wind Chill: 51°   Ceiling: 3900
Heat Index: 51°   Visibility: 10mi
Dew Point: 49°   Wind: 3mph
Humidity: 92%   Direction: 320°NW
Pressure: 30.2"   Gusts: NA
Location:  36.9274°N, 121.747°W
Report Text: KWVI 190553Z AUTO 32003KT 10SM BKN039 11/09 A3020 RMK AO2 SLPNO T01060094 10161 20106 53009
Loading
Personal Weather Stations






























Interactive Weather Map New forecast layout! Learn more

10-Day Weather Forecast

Advertisements
Track Severe Weather on mobile